Station Historical Data
Daily Summary for June 3, 2012 Units:  English    Metric   Both
« Previous Day
Next Day »
Daily Weekly Monthly Yearly Custom
  High: Low: Average:
Temperature: 83.5 °F 57.5 °F 71 °F
Dew Point: 73.1 °F 55.5 °F 64.2 °F
Humidity: 94% 58% 80%
Wind Speed: 13.0mph 0.0mph 3mph
Wind Gust: 17.0mph - -
Wind- - South
Pressure: 29.96 in 29.81 in -
Precipitation: 1.53 in    
Historical Graphs
 
 
Tabular Data for June 3, 2012
Time Temperature Dew Point Pressure Wind Wind Speed Wind Gust Humidity Rainfall Rate (Hourly) Conditions
00:00 61.0 °F 57.7 °F 29.93 in Calm     89% 0.00 in
00:05 61.0 °F 57.4 °F 29.93 in Calm     88% 0.00 in
00:10 60.7 °F 57.1 °F 29.93 in Calm     88% 0.00 in
00:15 60.6 °F 57.3 °F 29.93 in Calm     89% 0.00 in
00:20 60.8 °F 57.5 °F 29.93 in Calm     89% 0.00 in
00:25 60.8 °F 57.5 °F 29.93 in Calm     89% 0.00 in
00:30 60.9 °F 57.6 °F 29.93 in Calm     89% 0.00 in
00:35 60.7 °F 57.1 °F 29.93 in Calm     88% 0.00 in
00:40 60.5 °F 57.2 °F 29.93 in Calm     89% 0.00 in
00:45 60.5 °F 57.6 °F 29.93 in Calm     90% 0.00 in
00:50 60.5 °F 57.6 °F 29.93 in Calm     90% 0.00 in
00:55 60.8 °F 57.8 °F 29.93 in Calm     90% 0.00 in
01:00 61.3 °F 57.7 °F 29.93 in Calm     88% 0.00 in
01:05 61.4 °F 57.8 °F 29.93 in Calm     88% 0.00 in
01:10 61.3 °F 57.7 °F 29.93 in Calm     88% 0.00 in
01:15 61.1 °F 57.5 °F 29.92 in Calm     88% 0.00 in
01:20 60.6 °F 57.0 °F 29.92 in Calm     88% 0.00 in
01:25 60.1 °F 56.8 °F 29.92 in Calm     89% 0.00 in
01:30 59.6 °F 56.4 °F 29.92 in Calm     89% 0.00 in
01:36 59.3 °F 56.7 °F 29.92 in Calm     91% 0.00 in
01:40 59.2 °F 56.6 °F 29.92 in Calm     91% 0.00 in
01:46 58.9 °F 56.3 °F 29.92 in Calm     91% 0.00 in
01:51 59.0 °F 56.7 °F 29.92 in Calm     92% 0.00 in
01:56 59.1 °F 56.8 °F 29.92 in Calm     92% 0.00 in
02:01 58.8 °F 56.5 °F 29.91 in Calm     92% 0.00 in
02:06 58.7 °F 56.4 °F 29.92 in SSW 1.0 mph 1.0 mph 92% 0.00 in
02:11 58.6 °F 56.3 °F 29.92 in Calm   1.0 mph 92% 0.00 in
02:16 58.5 °F 56.2 °F 29.92 in Calm     92% 0.00 in
02:21 58.6 °F 56.6 °F 29.91 in Calm     93% 0.00 in
02:26 58.7 °F 56.7 °F 29.91 in Calm     93% 0.00 in
02:31 58.8 °F 56.8 °F 29.91 in Calm   1.0 mph 93% 0.00 in
02:36 58.9 °F 56.6 °F 29.91 in Calm     92% 0.00 in
02:41 59.0 °F 56.7 °F 29.91 in Calm     92% 0.00 in
02:46 59.0 °F 56.7 °F 29.91 in Calm     92% 0.00 in
02:51 59.1 °F 56.8 °F 29.91 in Calm     92% 0.00 in
02:56 59.1 °F 56.8 °F 29.91 in WSW 1.0 mph 1.0 mph 92% 0.00 in
03:01 59.1 °F 56.8 °F 29.91 in Calm     92% 0.00 in
03:06 58.9 °F 56.3 °F 29.91 in Calm     91% 0.00 in
03:11 58.7 °F 56.1 °F 29.91 in Calm     91% 0.00 in
03:16 58.4 °F 56.1 °F 29.91 in Calm   1.0 mph 92% 0.00 in
03:21 58.1 °F 55.8 °F 29.92 in Calm     92% 0.00 in
03:26 57.9 °F 55.6 °F 29.91 in Calm   1.0 mph 92% 0.00 in
03:31 57.9 °F 55.9 °F 29.91 in Calm     93% 0.00 in
03:36 57.8 °F 55.8 °F 29.91 in Calm     93% 0.00 in
03:41 57.8 °F 55.8 °F 29.91 in Calm     93% 0.00 in
03:46 57.6 °F 55.6 °F 29.91 in Calm     93% 0.00 in
03:51 57.6 °F 55.9 °F 29.91 in Calm     94% 0.00 in
03:56 57.6 °F 55.6 °F 29.92 in Calm     93% 0.00 in
04:01 57.5 °F 55.5 °F 29.92 in Calm   1.0 mph 93% 0.00 in
04:06 57.5 °F 55.8 °F 29.92 in Calm     94% 0.00 in
04:11 57.7 °F 56.0 °F 29.92 in Calm     94% 0.00 in
04:16 57.9 °F 56.2 °F 29.92 in Calm     94% 0.00 in
04:22 57.9 °F 55.9 °F 29.92 in Calm     93% 0.00 in
04:27 58.2 °F 56.2 °F 29.92 in Calm     93% 0.00 in
04:32 58.6 °F 56.6 °F 29.92 in Calm     93% 0.00 in
04:37 59.1 °F 57.1 °F 29.92 in Calm     93% 0.00 in
04:42 59.2 °F 56.9 °F 29.92 in Calm     92% 0.00 in
04:47 59.3 °F 57.0 °F 29.91 in Calm     92% 0.00 in
04:52 59.3 °F 56.7 °F 29.92 in Calm     91% 0.00 in
04:57 59.0 °F 56.4 °F 29.92 in Calm     91% 0.00 in
05:02 58.7 °F 56.1 °F 29.92 in Calm     91% 0.00 in
05:07 58.7 °F 56.4 °F 29.92 in Calm     92% 0.00 in
05:12 58.6 °F 56.3 °F 29.92 in Calm     92% 0.00 in
05:17 58.4 °F 56.1 °F 29.92 in Calm     92% 0.00 in
05:22 58.1 °F 55.8 °F 29.93 in Calm     92% 0.00 in
05:27 58.2 °F 56.2 °F 29.93 in Calm     93% 0.00 in
05:32 58.4 °F 56.4 °F 29.92 in Calm     93% 0.00 in
05:37 58.7 °F 56.7 °F 29.92 in Calm     93% 0.00 in
05:42 58.9 °F 56.9 °F 29.93 in Calm     93% 0.00 in
05:47 59.0 °F 57.0 °F 29.93 in Calm     93% 0.00 in
05:52 59.2 °F 57.2 °F 29.93 in Calm     93% 0.00 in
05:57 59.4 °F 57.4 °F 29.93 in Calm     93% 0.00 in
06:02 59.7 °F 57.4 °F 29.93 in Calm     92% 0.00 in
06:07 60.0 °F 57.7 °F 29.92 in Calm   1.0 mph 92% 0.00 in
06:12 60.3 °F 58.0 °F 29.92 in East 1.0 mph 1.0 mph 92% 0.00 in
06:18 60.4 °F 57.8 °F 29.92 in East 2.0 mph 2.0 mph 91% 0.00 in
06:23 60.4 °F 57.8 °F 29.92 in Calm   1.0 mph 91% 0.00 in
06:28 60.3 °F 57.7 °F 29.92 in ESE 1.0 mph 2.0 mph 91% 0.00 in
06:33 60.3 °F 57.7 °F 29.92 in Calm   1.0 mph 91% 0.00 in
06:38 60.3 °F 58.0 °F 29.92 in Calm   1.0 mph 92% 0.00 in
06:43 60.4 °F 58.1 °F 29.92 in Calm   1.0 mph 92% 0.00 in
06:48 60.5 °F 58.2 °F 29.92 in Calm   1.0 mph 92% 0.00 in
06:53 60.6 °F 58.3 °F 29.93 in ESE 2.0 mph 2.0 mph 92% 0.00 in
06:58 60.7 °F 58.4 °F 29.93 in ESE 1.0 mph 2.0 mph 92% 0.00 in
07:03 60.7 °F 58.4 °F 29.93 in SSE 2.0 mph 2.0 mph 92% 0.00 in
07:08 60.8 °F 58.5 °F 29.94 in Calm   1.0 mph 92% 0.00 in
07:13 60.8 °F 58.5 °F 29.94 in Calm   2.0 mph 92% 0.00 in
07:18 61.0 °F 58.7 °F 29.94 in South 3.0 mph 3.0 mph 92% 0.00 in
07:23 61.3 °F 59.0 °F 29.94 in SSE 3.0 mph 3.0 mph 92% 0.00 in
07:28 61.5 °F 59.2 °F 29.94 in SE 1.0 mph 3.0 mph 92% 0.00 in
07:33 61.7 °F 59.4 °F 29.95 in SE 1.0 mph 2.0 mph 92% 0.00 in
07:38 61.9 °F 59.2 °F 29.95 in Calm   1.0 mph 91% 0.00 in
07:43 62.0 °F 59.3 °F 29.94 in SE 1.0 mph 2.0 mph 91% 0.00 in
07:48 62.2 °F 59.5 °F 29.95 in ESE 1.0 mph 2.0 mph 91% 0.00 in
07:53 62.3 °F 59.3 °F 29.95 in ESE 1.0 mph 2.0 mph 90% 0.00 in
07:58 62.5 °F 59.8 °F 29.95 in SE 2.0 mph 2.0 mph 91% 0.00 in
08:03 62.7 °F 60.0 °F 29.95 in SSE 1.0 mph 3.0 mph 91% 0.00 in
08:08 62.8 °F 59.8 °F 29.94 in ESE 2.0 mph 2.0 mph 90% 0.00 in
08:13 63.0 °F 60.3 °F 29.94 in ESE 2.0 mph 2.0 mph 91% 0.00 in
08:18 63.1 °F 60.4 °F 29.94 in SE 1.0 mph 3.0 mph 91% 0.00 in
08:23 63.4 °F 60.7 °F 29.95 in SE 2.0 mph 3.0 mph 91% 0.00 in
08:28 63.7 °F 60.7 °F 29.94 in ESE 3.0 mph 3.0 mph 90% 0.00 in
08:33 64.0 °F 60.7 °F 29.94 in ESE 1.0 mph 4.0 mph 89% 0.00 in
08:38 64.3 °F 61.0 °F 29.94 in SE 2.0 mph 3.0 mph 89% 0.00 in
08:43 64.9 °F 61.6 °F 29.94 in ESE 2.0 mph 3.0 mph 89% 0.00 in
08:48 65.2 °F 61.6 °F 29.93 in East 2.0 mph 4.0 mph 88% 0.00 in
08:53 65.8 °F 61.8 °F 29.94 in South 3.0 mph 3.0 mph 87% 0.00 in
08:58 66.3 °F 61.7 °F 29.95 in SE 1.0 mph 4.0 mph 85% 0.00 in
09:03 66.6 °F 62.0 °F 29.95 in SE 3.0 mph 3.0 mph 85% 0.00 in
09:08 66.9 °F 62.2 °F 29.94 in SSE 4.0 mph 4.0 mph 85% 0.00 in
09:13 67.1 °F 62.5 °F 29.94 in South 3.0 mph 4.0 mph 85% 0.00 in
09:19 67.5 °F 62.2 °F 29.95 in South 3.0 mph 7.0 mph 83% 0.00 in
09:24 68.0 °F 62.0 °F 29.94 in SSE 6.0 mph 8.0 mph 81% 0.00 in
09:29 68.6 °F 62.2 °F 29.95 in SE 7.0 mph 9.0 mph 80% 0.00 in
09:34 68.9 °F 62.1 °F 29.95 in SSE 4.0 mph 7.0 mph 79% 0.00 in
09:39 69.0 °F 61.9 °F 29.95 in SE 4.0 mph 8.0 mph 78% 0.00 in
09:44 68.9 °F 61.8 °F 29.95 in South 1.0 mph 5.0 mph 78% 0.00 in
09:49 68.9 °F 62.1 °F 29.95 in SSW 2.0 mph 4.0 mph 79% 0.00 in
09:54 69.0 °F 62.2 °F 29.96 in South 2.0 mph 5.0 mph 79% 0.00 in
09:59 69.1 °F 62.3 °F 29.95 in SSE 6.0 mph 6.0 mph 79% 0.00 in
10:04 69.3 °F 62.5 °F 29.95 in South 3.0 mph 6.0 mph 79% 0.00 in
10:09 69.6 °F 62.8 °F 29.94 in ESE 6.0 mph 6.0 mph 79% 0.00 in
10:14 70.1 °F 63.3 °F 29.94 in SE 4.0 mph 7.0 mph 79% 0.00 in
10:19 70.6 °F 64.1 °F 29.95 in SE 5.0 mph 6.0 mph 80% 0.00 in
10:24 71.3 °F 64.1 °F 29.95 in Calm   6.0 mph 78% 0.00 in
10:29 71.8 °F 64.2 °F 29.94 in SE 4.0 mph 5.0 mph 77% 0.00 in
10:34 72.3 °F 64.7 °F 29.94 in SW 1.0 mph 6.0 mph 77% 0.00 in
10:39 72.9 °F 64.9 °F 29.94 in SSW 1.0 mph 4.0 mph 76% 0.00 in
10:44 73.5 °F 65.1 °F 29.94 in ESE 4.0 mph 5.0 mph 75% 0.00 in
10:49 74.0 °F 64.8 °F 29.93 in SSW 3.0 mph 5.0 mph 73% 0.00 in
10:54 74.5 °F 66.1 °F 29.93 in WSW 2.0 mph 4.0 mph 75% 0.00 in
10:59 75.1 °F 65.5 °F 29.93 in SE 5.0 mph 5.0 mph 72% 0.00 in
11:04 75.3 °F 65.3 °F 29.93 in SSW 5.0 mph 7.0 mph 71% 0.00 in
11:09 75.6 °F 65.1 °F 29.93 in South 3.0 mph 7.0 mph 70% 0.00 in
11:14 75.9 °F 64.6 °F 29.93 in SSW 6.0 mph 7.0 mph 68% 0.00 in
11:19 76.1 °F 64.8 °F 29.93 in SE 7.0 mph 10.0 mph 68% 0.00 in
11:24 76.3 °F 64.1 °F 29.93 in SE 7.0 mph 11.0 mph 66% 0.00 in
11:29 76.3 °F 63.7 °F 29.93 in SE 7.0 mph 10.0 mph 65% 0.00 in
11:34 76.4 °F 63.8 °F 29.93 in SE 6.0 mph 11.0 mph 65% 0.00 in
11:39 77.0 °F 63.9 °F 29.92 in SSE 4.0 mph 8.0 mph 64% 0.00 in
11:44 77.4 °F 65.6 °F 29.92 in SSW 8.0 mph 8.0 mph 67% 0.00 in
11:49 77.8 °F 65.5 °F 29.92 in SE 7.0 mph 7.0 mph 66% 0.00 in
11:54 77.6 °F 64.9 °F 29.92 in SE 7.0 mph 10.0 mph 65% 0.00 in
11:59 78.0 °F 64.8 °F 29.92 in SE 6.0 mph 9.0 mph 64% 0.00 in
12:04 78.1 °F 64.5 °F 29.92 in SSE 7.0 mph 12.0 mph 63% 0.00 in
12:09 78.3 °F 64.7 °F 29.92 in SE 8.0 mph 10.0 mph 63% 0.00 in
12:14 78.3 °F 64.2 °F 29.92 in SE 7.0 mph 10.0 mph 62% 0.00 in
12:19 78.9 °F 65.7 °F 29.92 in SE 11.0 mph 11.0 mph 64% 0.00 in
12:24 79.0 °F 64.4 °F 29.92 in ESE 6.0 mph 11.0 mph 61% 0.00 in
12:29 79.4 °F 63.3 °F 29.92 in SW 3.0 mph 8.0 mph 58% 0.00 in
12:34 79.5 °F 66.3 °F 29.92 in SSE 5.0 mph 9.0 mph 64% 0.00 in
12:39 79.6 °F 64.5 °F 29.92 in SE 7.0 mph 11.0 mph 60% 0.00 in
12:44 79.7 °F 65.1 °F 29.92 in SSW 4.0 mph 12.0 mph 61% 0.00 in
12:49 80.0 °F 65.4 °F 29.91 in SSE 5.0 mph 11.0 mph 61% 0.00 in
12:54 80.2 °F 64.6 °F 29.91 in SSW 5.0 mph 10.0 mph 59% 0.00 in
12:59 80.3 °F 66.1 °F 29.91 in SE 7.0 mph 10.0 mph 62% 0.00 in
13:04 80.4 °F 66.7 °F 29.91 in SSE 6.0 mph 8.0 mph 63% 0.00 in
13:09 80.9 °F 66.7 °F 29.91 in SSE 6.0 mph 8.0 mph 62% 0.00 in
13:14 81.1 °F 65.9 °F 29.91 in SW 3.0 mph 7.0 mph 60% 0.00 in
13:19 81.5 °F 66.3 °F 29.91 in SSW 6.0 mph 7.0 mph 60% 0.00 in
13:24 81.5 °F 66.3 °F 29.90 in ESE 2.0 mph 8.0 mph 60% 0.00 in
13:29 81.8 °F 65.6 °F 29.90 in SE 5.0 mph 9.0 mph 58% 0.00 in
13:34 82.0 °F 67.2 °F 29.90 in SSE 5.0 mph 8.0 mph 61% 0.00 in
13:39 82.0 °F 66.3 °F 29.90 in SW 3.0 mph 6.0 mph 59% 0.00 in
13:44 82.3 °F 67.0 °F 29.90 in SE 4.0 mph 4.0 mph 60% 0.00 in
13:49 82.0 °F 66.3 °F 29.90 in SE 5.0 mph 5.0 mph 59% 0.00 in
13:54 81.8 °F 66.1 °F 29.89 in WSW 6.0 mph 7.0 mph 59% 0.00 in
13:59 81.5 °F 67.7 °F 29.89 in South 4.0 mph 5.0 mph 63% 0.00 in
14:04 82.0 °F 66.8 °F 29.89 in SW 2.0 mph 6.0 mph 60% 0.00 in
14:10 82.3 °F 68.0 °F 29.89 in South 1.0 mph 4.0 mph 62% 0.00 in
14:15 82.9 °F 68.1 °F 29.89 in SE 3.0 mph 5.0 mph 61% 0.00 in
14:20 83.2 °F 69.8 °F 29.88 in SW 5.0 mph 6.0 mph 64% 0.00 in
14:25 83.5 °F 67.7 °F 29.88 in SW 6.0 mph 10.0 mph 59% 0.00 in
14:30 83.0 °F 67.7 °F 29.88 in SSE 1.0 mph 4.0 mph 60% 0.00 in
14:35 82.2 °F 67.9 °F 29.89 in WSW 6.0 mph 6.0 mph 62% 0.00 in
14:40 81.8 °F 68.4 °F 29.89 in SW 8.0 mph 8.0 mph 64% 0.00 in
14:45 81.3 °F 68.0 °F 29.89 in SW 1.0 mph 5.0 mph 64% 0.00 in
14:50 81.3 °F 68.0 °F 29.89 in South 5.0 mph 6.0 mph 64% 0.00 in
14:55 81.2 °F 68.3 °F 29.89 in SSE 8.0 mph 8.0 mph 65% 0.00 in
15:00 81.2 °F 69.2 °F 29.89 in SSE 5.0 mph 6.0 mph 67% 0.00 in
15:05 81.6 °F 70.4 °F 29.88 in SW 7.0 mph 8.0 mph 69% 0.00 in
15:10 81.3 °F 69.3 °F 29.88 in WSW 4.0 mph 8.0 mph 67% 0.00 in
15:15 81.9 °F 70.7 °F 29.87 in SW 3.0 mph 5.0 mph 69% 0.00 in
15:20 82.4 °F 70.3 °F 29.87 in SSW 3.0 mph 6.0 mph 67% 0.00 in
15:25 82.8 °F 69.8 °F 29.87 in South 6.0 mph 8.0 mph 65% 0.00 in
15:30 83.1 °F 70.1 °F 29.87 in SW 9.0 mph 11.0 mph 65% 0.00 in
15:35 83.2 °F 70.2 °F 29.87 in WSW 5.0 mph 12.0 mph 65% 0.00 in
15:40 82.6 °F 70.1 °F 29.86 in SW 8.0 mph 9.0 mph 66% 0.00 in
15:45 82.4 °F 70.3 °F 29.86 in SW 8.0 mph 10.0 mph 67% 0.00 in
15:50 82.4 °F 70.8 °F 29.86 in SE 4.0 mph 9.0 mph 68% 0.00 in
15:55 82.2 °F 70.6 °F 29.86 in SW 7.0 mph 9.0 mph 68% 0.00 in
16:00 82.0 °F 71.3 °F 29.86 in West 5.0 mph 11.0 mph 70% 0.00 in
16:05 82.1 °F 70.9 °F 29.86 in SSW 3.0 mph 8.0 mph 69% 0.00 in
16:10 81.9 °F 70.3 °F 29.85 in SW 5.0 mph 9.0 mph 68% 0.00 in
16:15 82.0 °F 70.8 °F 29.85 in SSW 4.0 mph 8.0 mph 69% 0.00 in
16:20 82.1 °F 70.5 °F 29.84 in SW 5.0 mph 8.0 mph 68% 0.00 in
16:25 82.4 °F 71.6 °F 29.84 in SSW 3.0 mph 9.0 mph 70% 0.00 in
16:30 82.5 °F 72.2 °F 29.84 in SE 3.0 mph 8.0 mph 71% 0.00 in
16:35 82.9 °F 70.8 °F 29.83 in WSW 6.0 mph 11.0 mph 67% 0.00 in
16:40 82.9 °F 71.3 °F 29.83 in SSW 4.0 mph 7.0 mph 68% 0.00 in
16:45 82.9 °F 70.8 °F 29.83 in SW 4.0 mph 10.0 mph 67% 0.00 in
16:50 82.9 °F 71.7 °F 29.83 in South 4.0 mph 7.0 mph 69% 0.00 in
16:55 83.0 °F 71.4 °F 29.84 in SSW 6.0 mph 12.0 mph 68% 0.00 in
17:00 82.6 °F 71.4 °F 29.84 in WSW 4.0 mph 12.0 mph 69% 0.00 in
17:06 82.6 °F 71.4 °F 29.84 in SW 8.0 mph 8.0 mph 69% 0.00 in
17:10 82.5 °F 71.3 °F 29.84 in SW 5.0 mph 7.0 mph 69% 0.00 in
17:16 82.5 °F 71.7 °F 29.84 in WSW 9.0 mph 10.0 mph 70% 0.00 in
17:21 82.3 °F 71.5 °F 29.85 in SSW 6.0 mph 7.0 mph 70% 0.00 in
17:26 81.9 °F 71.6 °F 29.85 in SW 5.0 mph 8.0 mph 71% 0.00 in
17:31 81.6 °F 71.7 °F 29.85 in SW 5.0 mph 6.0 mph 72% 0.00 in
17:36 81.3 °F 72.2 °F 29.85 in SW 5.0 mph 9.0 mph 74% 0.00 in
17:41 81.0 °F 71.5 °F 29.85 in SW 7.0 mph 9.0 mph 73% 0.00 in
17:46 81.0 °F 71.9 °F 29.84 in SSW 3.0 mph 6.0 mph 74% 0.00 in
17:51 81.0 °F 71.9 °F 29.84 in WSW 6.0 mph 7.0 mph 74% 0.00 in
17:56 80.9 °F 72.2 °F 29.84 in WSW 5.0 mph 6.0 mph 75% 0.00 in
18:01 80.8 °F 72.1 °F 29.84 in SW 5.0 mph 7.0 mph 75% 0.00 in
18:06 80.9 °F 72.6 °F 29.84 in SW 4.0 mph 8.0 mph 76% 0.00 in
18:11 81.3 °F 72.6 °F 29.83 in SSW 5.0 mph 8.0 mph 75% 0.00 in
18:16 81.5 °F 72.4 °F 29.83 in SW 7.0 mph 7.0 mph 74% 0.00 in
18:21 81.8 °F 73.1 °F 29.84 in SW 5.0 mph 7.0 mph 75% 0.00 in
18:26 81.6 °F 72.5 °F 29.83 in SW 4.0 mph 8.0 mph 74% 0.00 in
18:31 81.4 °F 72.3 °F 29.83 in SW 7.0 mph 11.0 mph 74% 0.00 in
18:36 81.3 °F 72.6 °F 29.83 in SW 5.0 mph 9.0 mph 75% 0.00 in
18:41 80.9 °F 72.2 °F 29.83 in SSW 6.0 mph 9.0 mph 75% 0.00 in
18:46 80.7 °F 71.7 °F 29.83 in SW 3.0 mph 10.0 mph 74% 0.00 in
18:51 80.6 °F 71.6 °F 29.83 in SW 7.0 mph 10.0 mph 74% 0.00 in
18:56 80.6 °F 71.9 °F 29.83 in SW 8.0 mph 8.0 mph 75% 0.00 in
19:01 81.0 °F 71.5 °F 29.83 in SW 8.0 mph 10.0 mph 73% 0.00 in
19:06 81.3 °F 70.6 °F 29.83 in SSW 7.0 mph 12.0 mph 70% 0.00 in
19:11 81.0 °F 70.7 °F 29.83 in SSW 6.0 mph 8.0 mph 71% 0.00 in
19:16 80.6 °F 70.8 °F 29.83 in West 7.0 mph 9.0 mph 72% 0.00 in
19:21 80.3 °F 70.5 °F 29.83 in SSW 6.0 mph 8.0 mph 72% 0.00 in
19:26 80.2 °F 70.8 °F 29.82 in West 3.0 mph 6.0 mph 73% 0.00 in
19:31 80.1 °F 70.7 °F 29.83 in West 2.0 mph 5.0 mph 73% 0.00 in
19:36 80.0 °F 70.6 °F 29.83 in West 5.0 mph 6.0 mph 73% 0.00 in
19:41 80.1 °F 70.7 °F 29.83 in SW 4.0 mph 7.0 mph 73% 0.00 in
19:46 80.3 °F 70.9 °F 29.82 in SW 5.0 mph 8.0 mph 73% 0.00 in
19:51 80.5 °F 71.1 °F 29.82 in WSW 4.0 mph 6.0 mph 73% 0.00 in
19:56 80.6 °F 71.6 °F 29.81 in SW 3.0 mph 6.0 mph 74% 0.00 in
20:01 80.5 °F 71.5 °F 29.81 in SSW 2.0 mph 5.0 mph 74% 0.00 in
20:06 80.1 °F 71.1 °F 29.81 in SW 5.0 mph 5.0 mph 74% 0.00 in
20:11 79.8 °F 71.2 °F 29.81 in SW 2.0 mph 4.0 mph 75% 0.00 in
20:16 79.6 °F 71.0 °F 29.81 in WSW 3.0 mph 4.0 mph 75% 0.00 in
20:21 79.2 °F 71.4 °F 29.82 in SW 4.0 mph 4.0 mph 77% 0.00 in
20:26 78.6 °F 71.2 °F 29.82 in WSW 2.0 mph 5.0 mph 78% 0.00 in
20:31 78.3 °F 71.6 °F 29.82 in SW 4.0 mph 4.0 mph 80% 0.00 in
20:36 78.2 °F 71.5 °F 29.82 in SSW 1.0 mph 4.0 mph 80% 0.00 in
20:41 77.9 °F 71.6 °F 29.81 in Calm   3.0 mph 81% 0.00 in
20:46 77.7 °F 71.4 °F 29.81 in SSW 1.0 mph 2.0 mph 81% 0.00 in
20:51 77.4 °F 71.5 °F 29.81 in SSW 1.0 mph 2.0 mph 82% 0.00 in
20:56 77.2 °F 71.3 °F 29.81 in South 3.0 mph 3.0 mph 82% 0.00 in
21:01 77.0 °F 71.4 °F 29.81 in SSW 2.0 mph 3.0 mph 83% 0.00 in
21:06 76.8 °F 71.2 °F 29.82 in SSW 1.0 mph 3.0 mph 83% 0.00 in
21:11 76.6 °F 71.4 °F 29.82 in SW 3.0 mph 3.0 mph 84% 0.00 in
21:16 76.2 °F 71.4 °F 29.82 in SSW 2.0 mph 4.0 mph 85% 0.00 in
21:22 75.9 °F 71.1 °F 29.82 in SW 3.0 mph 3.0 mph 85% 0.00 in
21:27 75.9 °F 71.1 °F 29.81 in SSW 3.0 mph 5.0 mph 85% 0.00 in
21:32 76.0 °F 71.2 °F 29.81 in SW 4.0 mph 4.0 mph 85% 0.00 in
21:37 75.9 °F 71.1 °F 29.81 in SSE 4.0 mph 5.0 mph 85% 0.00 in
21:42 75.8 °F 71.0 °F 29.81 in SW 4.0 mph 4.0 mph 85% 0.00 in
21:47 75.8 °F 71.0 °F 29.81 in SW 1.0 mph 4.0 mph 85% 0.00 in
21:52 75.8 °F 71.0 °F 29.82 in Calm   1.0 mph 85% 0.00 in
21:57 75.6 °F 70.8 °F 29.81 in Calm   1.0 mph 85% 0.00 in
22:02 75.5 °F 70.7 °F 29.82 in Calm     85% 0.00 in
22:07 75.4 °F 70.9 °F 29.82 in NNE 2.0 mph 2.0 mph 86% 0.00 in
22:12 75.1 °F 71.0 °F 29.82 in NE 2.0 mph 2.0 mph 87% 0.00 in
22:17 74.8 °F 71.0 °F 29.82 in ENE 2.0 mph 3.0 mph 88% 0.00 in
22:22 74.7 °F 70.9 °F 29.82 in NE 2.0 mph 2.0 mph 88% 0.00 in
22:27 74.6 °F 70.8 °F 29.83 in WNW 4.0 mph 4.0 mph 88% 0.00 in
22:32 73.9 °F 70.8 °F 29.86 in WNW 12.0 mph 12.0 mph 90% 3.13 in
22:37 72.6 °F 69.8 °F 29.87 in WSW 7.0 mph 13.0 mph 91% 2.05 in
22:42 70.6 °F 67.5 °F 29.85 in ENE 6.0 mph 7.0 mph 90% 4.14 in
22:47 69.3 °F 66.6 °F 29.86 in ESE 4.0 mph 4.0 mph 91% 2.68 in
22:52 68.7 °F 66.3 °F 29.85 in NNE 4.0 mph 10.0 mph 92% 0.69 in
22:57 67.7 °F 65.0 °F 29.85 in North 4.0 mph 5.0 mph 91% 0.26 in
23:02 66.9 °F 64.5 °F 29.86 in NNW 13.0 mph 13.0 mph 92% 0.08 in
23:07 66.8 °F 64.4 °F 29.86 in SE 7.0 mph 9.0 mph 92% 0.05 in
23:12 67.3 °F 64.6 °F 29.86 in East 11.0 mph 17.0 mph 91% 0.00 in
23:18 67.6 °F 65.2 °F 29.84 in East 7.0 mph 12.0 mph 92% 0.49 in
23:23 67.9 °F 65.5 °F 29.84 in ESE 3.0 mph 13.0 mph 92% 0.35 in
23:28 67.9 °F 65.5 °F 29.85 in East 5.0 mph 9.0 mph 92% 0.13 in
23:33 67.9 °F 65.5 °F 29.87 in North 5.0 mph 10.0 mph 92% 0.36 in
23:38 67.7 °F 65.3 °F 29.86 in ENE 5.0 mph 6.0 mph 92% 0.50 in
23:43 67.4 °F 65.3 °F 29.86 in ENE 1.0 mph 6.0 mph 93% 0.26 in
23:48 67.2 °F 65.1 °F 29.86 in ESE 1.0 mph 4.0 mph 93% 0.11 in
23:53 67.1 °F 65.0 °F 29.86 in Calm     93% 0.06 in
23:58 67.1 °F 65.0 °F 29.88 in West 1.0 mph 2.0 mph 93% 0.04 in
Compliments of Weather Underground